Tiempo atmosférico en la estación meteorológica de Sariñena, Depósito Agua, Huesca (302 m.)



Fecha
DESCASC
Temp. máxima en grados centígrados (hora)
DESCASC
Temp. mínima en grados centígrados (hora)
DESCASC
Temp. media en grados centígrados
DESCASC
Racha de viento máxima en m/sg (hora)
DESCASC
Velocidad máxima media en intervalos de 10 minutos(hora)
DESCASC
Precipitaciones diarias en mm
DESCASC
Precipitaciones de 00:00 a 06:00 en mm
DESCASC
Precipitaciones de 06:00 a 12:00 en mm
DESCASC
Precipitaciones de 12:00 a 18:00 en mm
DESCASC
Precipitaciones de 18:00 a 24:00 en mm
DESCASC
15-07-2018 -- (--) -- (--) -- 6.67 (01:20) 3.61 (01:20) 0 0 0 0 0
14-07-2018 -- (--) -- (--) -- 6.11 (15:10) 3.61 (17:10) 0 0 0 0 0
13-07-2018 32.3 (16:50) 18.9 (07:10) 25.6 9.44 (19:20) 6.39 (19:20) 0 0 0 0 0
12-07-2018 32.5 (18:00) 17.9 (00:00) 25.2 13.61 (02:00) 8.61 (02:00) 2.2 2.2 0 0 0
11-07-2018 33.6 (17:30) 17.6 (00:00) 25.6 15 (19:40) 7.5 (19:40) 2.8 0 0 0 2.8
10-07-2018 33.5 (17:30) 19 (00:00) 26.3 8.61 (20:20) 4.72 (20:10) 0 0 0 0 0
09-07-2018 34.1 (16:50) 20.4 (00:00) 27.2 8.89 (00:40) 5.56 (00:40) 0 0 0 0 0
08-07-2018 34.9 (19:10) 18.9 (07:00) 26.9 9.17 (23:59) 4.44 (02:00) 0.2 0.2 0 0 0
07-07-2018 34.2 (18:00) 18.3 (00:00) 26.3 10.56 (23:30) 5.83 (23:30) 1 0 0 0 1
06-07-2018 32 (18:20) 15.2 (00:00) 23.6 8.33 (03:30) 5.28 (03:30) 0 0 0 0 0
05-07-2018 28.9 (16:10) 17.2 (06:10) 23.1 13.06 (17:50) 7.5 (17:40) 0 0 0 0 0
04-07-2018 32.7 (16:40) 19.4 (07:10) 26.1 11.11 (15:20) 6.11 (17:50) 0 0 0 0 0
03-07-2018 34.5 (18:20) 17.7 (06:50) 26.1 8.33 (19:40) 4.72 (19:40) 0 0 0 0 0
02-07-2018 32.4 (18:00) 18.2 (06:20) 25.3 6.94 (09:00) 4.17 (10:10) 0 0 0 0 0
01-07-2018 33.4 (15:50) 18.2 (00:00) 25.8 13.33 (17:40) 6.67 (17:40) 3.6 0 0 3.6 0
30-06-2018 33 (17:30) 18.4 (07:20) 25.7 12.22 (19:20) 8.06 (19:30) 0 0 0 0 0
29-06-2018 31.5 (17:00) 17.8 (00:00) 24.6 9.17 (16:40) 5.28 (17:30) 0 0 0 0 0
28-06-2018 32.1 (16:20) 18.4 (00:00) 25.2 14.72 (21:50) 9.17 (22:00) 0 0 0 0 0
27-06-2018 33.4 (15:30) 19.2 (00:00) 26.3 9.72 (21:50) 5.28 (21:50) 0 0 0 0 0
26-06-2018 34.3 (17:30) 19.2 (00:00) 26.8 10.28 (00:40) 6.11 (00:40) 0 0 0 0 0
25-06-2018 34.4 (19:30) 18.3 (00:00) 26.4 9.44 (23:59) 5.83 (23:59) 0 0 0 0 0
24-06-2018 33.6 (19:00) 18.1 (00:00) 25.8 9.17 (00:50) 5.28 (00:10) 0 0 0 0 0
23-06-2018 33.3 (19:50) 15.3 (00:00) 24.3 7.78 (23:10) 4.44 (21:40) 0 0 0 0 0
22-06-2018 33.6 (16:40) 18 (06:30) 25.8 11.39 (18:30) 6.39 (17:40) 0 0 0 0 0
21-06-2018 36.4 (17:30) 17.2 (00:00) 26.8 6.94 (00:30) 3.89 (00:30) 0 0 0 0 0
20-06-2018 33.5 (17:20) 16.9 (00:00) 25.2 9.72 (16:20) 4.17 (20:10) 0 0 0 0 0
19-06-2018 32.3 (18:30) 14.5 (00:00) 23.4 6.67 (16:40) 2.78 (08:50) 0 0 0 0 0
18-06-2018 31.2 (17:20) 13.3 (00:00) 22.3 8.33 (18:20) 5 (18:20) 0 0 0 0 0
17-06-2018 27.8 (17:50) 12.6 (00:00) 20.2 11.11 (19:20) 6.67 (19:30) 0 0 0 0 0

Gráficas

Temp. máximas Temp. mínimas Temp. medias Precipitaciones Rachas de viento máximas Velocidades máximas media en intervalos de 10 minutos

Datos horarios

Fecha y hora oficial Temperatura (ºC) Velocidad del viento (km/h) Dirección del viento Racha (km/h) Dirección de racha Precipitación (mm) Presión (hPa) Tendencia (hPa) Humedad (%)
2018-07-16 23:00:00 21.3 16 Oeste 31 Oeste 0 -- -- 61
2018-07-16 22:00:00 22.3 20 Oeste 44 Oeste 0 -- -- 59
2018-07-16 21:00:00 24.5 26 Oeste 54 Oeste 0 -- -- 52
2018-07-16 20:00:00 25.8 32 Oeste 64 Oeste 0 -- -- 49
2018-07-16 19:00:00 27.1 33 Oeste 57 Oeste 0 -- -- 45
2018-07-16 18:00:00 28.3 31 Oeste 62 Oeste 0 -- -- 41
2018-07-16 17:00:00 28.5 35 Oeste 59 Oeste 0 -- -- 44
2018-07-16 16:00:00 28.7 33 Oeste 58 Oeste 0 -- -- 41
2018-07-16 15:00:00 28.1 32 Oeste 58 Oeste 0 -- -- 46
2018-07-16 14:00:00 28.5 28 Oeste 53 Oeste 0 -- -- 44
2018-07-16 13:00:00 28.2 24 Oeste 42 Oeste 0 -- -- 46
2018-07-16 12:00:00 27 18 Noroeste 39 Oeste 0 -- -- 49
2018-07-16 11:00:00 -- 29 Oeste 48 Oeste 0 -- -- --
2018-07-16 10:00:00 23 24 Oeste 43 Oeste 0 -- -- 66
2018-07-16 09:00:00 20.2 17 Oeste 30 Oeste 0 -- -- 77
2018-07-16 08:00:00 19.4 16 Oeste 27 Oeste 0.2 -- -- 81
2018-07-16 07:00:00 18.9 5 Nordeste 16 Oeste 0 -- -- 85
2018-07-16 06:00:00 19.2 10 Oeste 17 Oeste 0.2 -- -- 83
2018-07-16 05:00:00 -- 12 Noroeste 23 Noroeste 0 -- -- --
2018-07-16 04:00:00 20.6 13 Noroeste 26 Oeste 0 -- -- 75
2018-07-16 03:00:00 -- 10 Noroeste 27 Oeste 0 -- -- --
2018-07-16 02:00:00 21.8 14 Noroeste 24 Noroeste 0 -- -- 70
2018-07-16 01:00:00 24.4 5 Este 17 Oeste 0 -- -- 62
2018-07-16 00:00:00 25.4 6 Este 18 Este 0 -- -- 56
2018-07-15 23:00:00 27 8 Sudeste 21 Este 0 -- -- 54
2018-07-15 22:00:00 -- 10 Este 18 Este 0 -- -- --
2018-07-15 21:00:00 -- 8 Este 13 Sudeste 0 -- -- --
2018-07-15 20:00:00 35.6 3 Este 6 Nordeste 0 -- -- 24
2018-07-15 19:00:00 35.7 5 Norte 17 Este 0 -- -- 20
2018-07-15 18:00:00 -- 7 Nordeste 18 Nordeste 0 -- -- --
2018-07-15 17:00:00 -- 8 Norte 17 Norte 0 -- -- --
2018-07-15 16:00:00 34.8 7 Oeste 16 Oeste 0 -- -- 22
2018-07-15 15:00:00 34.4 8 Oeste 19 Sur 0 -- -- 25
2018-07-15 14:00:00 33 5 Sudoeste 17 Sudoeste 0 -- -- 31
2018-07-15 13:00:00 31.3 5 Noroeste 14 Este 0 -- -- 39
2018-07-15 12:00:00 29.8 5 Este 13 Sudeste 0 -- -- 48
2018-07-15 11:00:00 28.3 7 Sudeste 14 Sudeste 0 -- -- 55
2018-07-15 10:00:00 26.4 4 Sudeste 10 Sudeste 0 -- -- 55
2018-07-15 09:00:00 -- 0 Calma 5 Noroeste 0 -- -- --
2018-07-15 08:00:00 20 5 Norte 9 Norte 0 -- -- 73
2018-07-15 07:00:00 18.6 2 Norte 7 Oeste 0 -- -- 83
2018-07-15 06:00:00 19.1 6 Oeste 10 Oeste 0 -- -- 82
2018-07-15 05:00:00 20.6 5 Noroeste 9 Oeste 0 -- -- 74
2018-07-15 04:00:00 22.1 3 Oeste 18 Este 0 -- -- 65
2018-07-15 03:00:00 23.4 11 Este 21 Este 0 -- -- 59
2018-07-15 02:00:00 -- 10 Este 24 Este 0 -- -- --
2018-07-15 01:00:00 24.5 10 Este 19 Este 0 -- -- 59
2018-07-15 00:00:00 25.7 8 Este 21 Este 0 -- -- 56
2018-07-14 23:00:00 26.6 4 Este 12 Este 0 -- -- 54
2018-07-14 22:00:00 -- 4 Sudeste 14 Sudeste 0 -- -- --
2018-07-14 21:00:00 31 9 Este 19 Este 0 -- -- 38
2018-07-14 20:00:00 33.1 10 Este 18 Sudeste 0 -- -- 33
2018-07-14 19:00:00 -- 6 Este 17 Nordeste 0 -- -- --
2018-07-14 18:00:00 34.1 10 Este 21 Este 0 -- -- 32
2018-07-14 17:00:00 33.8 12 Este 21 Este 0 -- -- 33
2018-07-14 16:00:00 33.3 11 Este 22 Este 0 -- -- 32
2018-07-14 15:00:00 32.4 9 Este 22 Sudeste 0 -- -- 34
2018-07-14 14:00:00 31.6 9 Este 19 Este 0 -- -- 35
2018-07-14 13:00:00 29.9 7 Este 15 Este 0 -- -- 42
2018-07-14 12:00:00 29.2 6 Sudeste 14 Este 0 -- -- 46
2018-07-14 11:00:00 -- 5 Sudeste 10 Sur 0 -- -- --
2018-07-14 10:00:00 -- 3 Oeste 12 Sudoeste 0 -- -- --
2018-07-14 09:00:00 22 0 Calma 6 Este 0 -- -- 71
2018-07-14 08:00:00 -- 3 Sudoeste 9 Sudoeste 0 -- -- --
2018-07-14 07:00:00 18.1 3 Nordeste 12 Noroeste 0 -- -- 82
2018-07-14 06:00:00 18.4 8 Noroeste 14 Noroeste 0 -- -- 82
2018-07-14 05:00:00 19.1 7 Noroeste 13 Noroeste 0 -- -- 78
2018-07-14 04:00:00 20.3 0 Calma 8 Este 0 -- -- 72
2018-07-14 03:00:00 20.9 0 Calma 10 Nordeste 0 -- -- 68
2018-07-14 02:00:00 21.8 4 Este 10 Sudeste 0 -- -- 62
2018-07-14 01:00:00 22.5 6 Nordeste 18 Este 0 -- -- 61
2018-07-14 00:00:00 23.6 9 Nordeste 19 Este 0 -- -- 57
2018-07-13 23:00:00 24.8 9 Este 23 Este 0 -- -- 56
2018-07-13 22:00:00 25.1 11 Este 22 Este 0 -- -- 50
2018-07-13 21:00:00 27.2 13 Este 28 Este 0 -- -- 48
2018-07-13 20:00:00 29.1 14 Este 34 Sudeste 0 -- -- 42
2018-07-13 19:00:00 -- 20 Sudeste 33 Sudeste 0 -- -- --
2018-07-13 18:00:00 30.5 13 Este 24 Este 0 -- -- 43
2018-07-13 17:00:00 31.8 15 Este 29 Sudeste 0 -- -- 38
2018-07-13 16:00:00 31.5 15 Este 23 Sudeste 0 -- -- 40
2018-07-13 15:00:00 31.1 12 Este 24 Este 0 -- -- 40
2018-07-13 14:00:00 30.3 13 Sudeste 24 Este 0 -- -- 43
2018-07-13 13:00:00 29.5 12 Este 21 Sudeste 0 -- -- 45
2018-07-13 12:00:00 28.4 11 Este 22 Sudeste 0 -- -- 46
2018-07-13 11:00:00 27.1 6 Este 14 Sudeste 0 -- -- 51
2018-07-13 10:00:00 25.6 6 Sudeste 13 Sudeste 0 -- -- 60
2018-07-13 09:00:00 23.2 2 Sudeste 5 Sudeste 0 -- -- 68
2018-07-13 08:00:00 20.4 3 Norte 8 Norte 0 -- -- 77
2018-07-13 07:00:00 19.1 5 Norte 6 Norte 0 -- -- 80
2018-07-13 06:00:00 19.6 4 Norte 9 Este 0 -- -- 79
2018-07-13 05:00:00 19.9 4 Nordeste 14 Este 0 -- -- 79
2018-07-13 04:00:00 21 7 Este 15 Este 0 -- -- 81
2018-07-13 03:00:00 21.7 6 Este 17 Este 0 -- -- 85
2018-07-13 02:00:00 22.3 12 Este 19 Este 0 -- -- 84
2018-07-13 01:00:00 23 14 Sudeste 33 Este 0 -- -- 81
2018-07-13 00:00:00 23.6 14 Este 23 Este 0 -- -- 78
2018-07-12 23:00:00 24.3 5 Sudeste 13 Sudeste 0 -- -- 71
2018-07-12 22:00:00 24.9 7 Sudeste 30 Sudeste 0 -- -- 66
2018-07-12 21:00:00 28.7 14 Este 35 Este 0 -- -- 51
2018-07-12 20:00:00 31.5 5 Norte 12 Norte 0 -- -- 42
2018-07-12 19:00:00 32.5 5 Noroeste 10 Norte 0 -- -- 36
2018-07-12 18:00:00 32.5 4 Sudoeste 12 Noroeste 0 -- -- 41
2018-07-12 17:00:00 31 7 Oeste 13 Este 0 -- -- 43
2018-07-12 16:00:00 30.9 5 Sur 13 Oeste 0 -- -- 45
2018-07-12 15:00:00 29.3 5 Sudoeste 14 Noroeste 0 -- -- 50
2018-07-12 14:00:00 28.7 5 Sur 11 Sudoeste 0 -- -- 56
2018-07-12 13:00:00 27.4 3 Nordeste 11 Sudeste 0 -- -- 57
2018-07-12 12:00:00 25.3 4 Noroeste 10 Norte 0 -- -- 67
2018-07-12 11:00:00 23.1 2 Noroeste 11 Noroeste 0 -- -- 77
2018-07-12 10:00:00 21.3 9 Norte 14 Noroeste 0 -- -- 81
2018-07-12 09:00:00 19.4 4 Oeste 8 Noroeste 0 -- -- 89
2018-07-12 08:00:00 18.5 3 Noroeste 6 Noroeste 0 -- -- 92
2018-07-12 07:00:00 18 5 Noroeste 8 Noroeste 0 -- -- 93
2018-07-12 06:00:00 18.3 5 Norte 7 Norte 0 -- -- 90
2018-07-12 05:00:00 19.1 3 Norte 7 Oeste 0 -- -- 88
2018-07-12 04:00:00 19.8 2 Noroeste 10 Oeste 0 -- -- 86
2018-07-12 03:00:00 19.8 6 Norte 28 Este 0 -- -- 85
2018-07-12 02:00:00 19.9 31 Este 49 Este 1.8 -- -- 85
2018-07-12 01:00:00 20.4 5 Oeste 20 Noroeste 0.4 -- -- 87
2018-07-12 00:00:00 21.1 5 Sur 21 Norte 0 -- -- 80
2018-07-11 23:00:00 21.1 9 Norte 21 Norte 0.4 -- -- 82
2018-07-11 22:00:00 21.3 8 Norte 14 Norte 0 -- -- 81
2018-07-11 21:00:00 21.7 7 Sudeste 17 Noroeste 0 -- -- 80
2018-07-11 20:00:00 20.5 12 Noroeste 54 Sudoeste 2 -- -- 76
2018-07-11 19:00:00 28.2 19 Sur 41 Sudoeste 0.4 -- -- 55
2018-07-11 18:00:00 33.1 4 Noroeste 14 Oeste 0 -- -- 35
2018-07-11 17:00:00 33.2 6 Sudoeste 13 Sudoeste 0 -- -- 36
2018-07-11 16:00:00 32.8 6 Sudoeste 12 Oeste 0 -- -- 39
2018-07-11 15:00:00 30.7 6 Oeste 15 Oeste 0 -- -- 40
2018-07-11 14:00:00 29.7 5 Oeste 12 Noroeste 0 -- -- 44
2018-07-11 13:00:00 27.2 5 Oeste 13 Oeste 0 -- -- 53
2018-07-11 12:00:00 26.1 6 Oeste 12 Oeste 0 -- -- 56
2018-07-11 11:00:00 24.1 4 Oeste 10 Oeste 0 -- -- 64
2018-07-11 10:00:00 22 8 Noroeste 19 Noroeste 0 -- -- 67
2018-07-11 09:00:00 19.9 14 Noroeste 23 Oeste 0 -- -- 71
2018-07-11 08:00:00 18.2 6 Noroeste 13 Noroeste 0 -- -- 78
2018-07-11 07:00:00 17.6 7 Noroeste 18 Oeste 0 -- -- 80
2018-07-11 06:00:00 18.1 10 Oeste 17 Oeste 0 -- -- 79
2018-07-11 05:00:00 19 6 Noroeste 11 Noroeste 0 -- -- 79
2018-07-11 04:00:00 20.1 4 Norte 17 Noroeste 0 -- -- 73
2018-07-11 03:00:00 20.9 8 Noroeste 24 Noroeste 0 -- -- 70
2018-07-11 02:00:00 21.7 5 Oeste 12 Oeste 0 -- -- 68
2018-07-11 01:00:00 22.4 2 Sudoeste 15 Oeste 0 -- -- 68
2018-07-11 00:00:00 23.8 8 Noroeste 24 Oeste 0 -- -- 63
2018-07-10 23:00:00 25.2 14 Oeste 22 Oeste 0 -- -- 56
2018-07-10 22:00:00 26.7 14 Oeste 26 Oeste 0 -- -- 51
2018-07-10 21:00:00 29.5 15 Oeste 31 Oeste 0 -- -- 44
2018-07-10 20:00:00 31.8 14 Oeste 30 Oeste 0 -- -- 39
2018-07-10 19:00:00 33.1 15 Oeste 26 Oeste 0 -- -- 33
2018-07-10 18:00:00 33.4 12 Oeste 22 Sudoeste 0 -- -- 32
2018-07-10 17:00:00 33 8 Noroeste 21 Oeste 0 -- -- 33
2018-07-10 16:00:00 32.2 9 Oeste 20 Oeste 0 -- -- 36
2018-07-10 15:00:00 31.4 8 Noroeste 21 Oeste 0 -- -- 39
2018-07-10 14:00:00 30.2 8 Noroeste 20 Oeste 0 -- -- 44
2018-07-10 13:00:00 28.9 5 Norte 13 Noroeste 0 -- -- 47
2018-07-10 12:00:00 27.1 5 Sudoeste 12 Sudeste 0 -- -- 51
2018-07-10 11:00:00 25.1 4 Oeste 13 Oeste 0 -- -- 57
2018-07-10 10:00:00 22.7 8 Oeste 18 Noroeste 0 -- -- 63
2018-07-10 09:00:00 21 10 Oeste 17 Noroeste 0 -- -- 68
2018-07-10 08:00:00 19.9 6 Noroeste 12 Noroeste 0 -- -- 72
2018-07-10 07:00:00 19.1 4 Noroeste 14 Noroeste 0 -- -- 74
2018-07-10 06:00:00 19.6 7 Noroeste 13 Norte 0 -- -- 72
2018-07-10 05:00:00 19.7 6 Noroeste 12 Noroeste 0 -- -- 74
2018-07-10 04:00:00 20.2 4 Noroeste 11 Noroeste 0 -- -- 74
2018-07-10 03:00:00 21.1 8 Noroeste 19 Oeste 0 -- -- 72
2018-07-10 02:00:00 22.1 9 Noroeste 16 Oeste 0 -- -- 69
2018-07-10 01:00:00 23 12 Noroeste 19 Oeste 0 -- -- 65
2018-07-10 00:00:00 24.6 10 Oeste 21 Oeste 0 -- -- 57
2018-07-09 23:00:00 26.1 12 Oeste 21 Oeste 0 -- -- 50
2018-07-09 22:00:00 27.7 12 Oeste 27 Oeste 0 -- -- 45
2018-07-09 21:00:00 30.3 17 Oeste 29 Oeste 0 -- -- 39
2018-07-09 20:00:00 32.9 12 Oeste 28 Oeste 0 -- -- 35
2018-07-09 19:00:00 33.7 17 Oeste 29 Oeste 0 -- -- 32
2018-07-09 18:00:00 33.9 15 Oeste 29 Oeste 0 -- -- 31
2018-07-09 17:00:00 34.1 13 Oeste 26 Oeste 0 -- -- 33
2018-07-09 16:00:00 33.6 10 Oeste 18 Oeste 0 -- -- 35
2018-07-09 15:00:00 32.6 6 Sudoeste 17 Sudoeste 0 -- -- 42
2018-07-09 14:00:00 31.2 5 Sudoeste 12 Oeste 0 -- -- 47
2018-07-09 13:00:00 29 6 Oeste 17 Noroeste 0 -- -- 52
2018-07-09 12:00:00 26.2 6 Noroeste 22 Oeste 0 -- -- 60
2018-07-09 11:00:00 25.3 12 Noroeste 21 Noroeste 0 -- -- 63
2018-07-09 10:00:00 24.4 10 Noroeste 20 Oeste 0 -- -- 67
2018-07-09 09:00:00 22.9 7 Noroeste 19 Norte 0 -- -- 74
2018-07-09 08:00:00 21.1 8 Noroeste 21 Noroeste 0 -- -- 84
2018-07-09 07:00:00 20.9 8 Noroeste 18 Noroeste 0 -- -- 79
2018-07-09 06:00:00 21.2 12 Oeste 18 Oeste 0 -- -- 81
2018-07-09 05:00:00 21.8 11 Oeste 21 Oeste 0 -- -- 80
2018-07-09 04:00:00 22.5 7 Oeste 12 Oeste 0 -- -- 77
2018-07-09 03:00:00 23.2 4 Nordeste 30 Oeste 0 -- -- 73
2018-07-09 02:00:00 24.2 18 Oeste 30 Oeste 0 -- -- 69
2018-07-09 01:00:00 25.2 12 Noroeste 32 Noroeste 0 -- -- 65
2018-07-09 00:00:00 26.1 16 Oeste 33 Oeste 0 -- -- 55
2018-07-08 23:00:00 27.5 9 Oeste 21 Oeste 0 -- -- 53
2018-07-08 22:00:00 29.2 9 Sudoeste 14 Sudoeste 0 -- -- 50
2018-07-08 21:00:00 32 4 Sur 7 Sur 0 -- -- 39
2018-07-08 20:00:00 34.3 3 Sur 10 Sudoeste 0 -- -- 37
2018-07-08 19:00:00 34.7 3 Sur 13 Sudoeste 0 -- -- 36
2018-07-08 18:00:00 34.4 5 Sudoeste 12 Oeste 0 -- -- 36
2018-07-08 17:00:00 34 6 Noroeste 14 Sudeste 0 -- -- 34
2018-07-08 16:00:00 33.4 6 Sudeste 14 Sudeste 0 -- -- 37
2018-07-08 15:00:00 31.1 4 Sudoeste 17 Sudoeste 0 -- -- 43
2018-07-08 14:00:00 30.6 5 Nordeste 16 Este 0 -- -- 43
2018-07-08 13:00:00 29.6 5 Sudeste 12 Sudeste 0 -- -- 48
2018-07-08 12:00:00 28 5 Sur 13 Sudeste 0 -- -- 53
2018-07-08 11:00:00 25.7 4 Sur 12 Noroeste 0 -- -- 61
2018-07-08 10:00:00 23.4 6 Noroeste 12 Noroeste 0 -- -- 72
2018-07-08 09:00:00 21.9 4 Oeste 6 Norte 0 -- -- 77
2018-07-08 08:00:00 20.2 0 Calma 8 Oeste 0 -- -- 88
2018-07-08 07:00:00 18.9 0 Calma 5 Nordeste 0 -- -- 89
2018-07-08 06:00:00 19.5 4 Oeste 9 Oeste 0 -- -- 89
2018-07-08 05:00:00 20 3 Noroeste 23 Oeste 0 -- -- 86
2018-07-08 04:00:00 20.8 7 Oeste 18 Oeste 0 -- -- 88
2018-07-08 03:00:00 21 6 Este 23 Norte 0.2 -- -- 83
2018-07-08 02:00:00 21.4 16 Norte 26 Norte 0 -- -- 81
2018-07-08 01:00:00 22.4 6 Norte 13 Norte 0 -- -- 83
2018-07-08 00:00:00 22.7 8 Este 38 Sudeste 1 -- -- 81
2018-07-07 23:00:00 26.8 13 Este 32 Este 0 -- -- 48
2018-07-07 22:00:00 28 9 Este 19 Este 0 -- -- 51
2018-07-07 21:00:00 29.5 10 Este 18 Nordeste 0 -- -- 46
2018-07-07 20:00:00 31.5 8 Nordeste 15 Este 0 -- -- 39
2018-07-07 19:00:00 33.5 5 Este 13 Sudeste 0 -- -- 31
2018-07-07 18:00:00 34.2 5 Sur 18 Sudeste 0 -- -- 32
2018-07-07 17:00:00 33.9 10 Sudeste 19 Sur 0 -- -- 32
2018-07-07 16:00:00 33.3 6 Sudeste 19 Sudoeste 0 -- -- 35
2018-07-07 15:00:00 31.9 10 Sudeste 25 Sur 0 -- -- 37
2018-07-07 14:00:00 29.9 9 Sudeste 29 Este 0 -- -- 46
2018-07-07 13:00:00 29.8 8 Este 22 Sudeste 0 -- -- 51
2018-07-07 12:00:00 28.4 9 Sudeste 17 Este 0 -- -- 53
2018-07-07 11:00:00 26.4 5 Sudeste 14 Sur 0 -- -- 62
2018-07-07 10:00:00 23.9 5 Este 9 Este 0 -- -- 66
2018-07-07 09:00:00 20.6 5 Noroeste 11 Oeste 0 -- -- 75
2018-07-07 08:00:00 18.5 7 Oeste 13 Oeste 0 -- -- 78
2018-07-07 07:00:00 18.4 3 Oeste 6 Oeste 0 -- -- 82
2018-07-07 06:00:00 18.8 5 Noroeste 8 Oeste 0 -- -- 84
2018-07-07 05:00:00 19.4 4 Oeste 8 Oeste 0 -- -- 81
2018-07-07 04:00:00 21 2 Nordeste 11 Nordeste 0 -- -- 80
2018-07-07 03:00:00 20.7 4 Nordeste 6 Nordeste 0 -- -- 73
2018-07-07 02:00:00 21.1 4 Norte 6 Noroeste 0 -- -- 61
2018-07-07 01:00:00 21.8 0 Calma 6 Noroeste 0 -- -- 63
2018-07-07 00:00:00 22.5 3 Oeste 18 Sur 0 -- -- 61
2018-07-06 23:00:00 25.1 0 Calma 6 Sudeste 0 -- -- 50
2018-07-06 22:00:00 27.1 3 Sudeste 6 Noroeste 0 -- -- 42
2018-07-06 21:00:00 30 5 Noroeste 10 Noroeste 0 -- -- 36
2018-07-06 20:00:00 31.2 6 Oeste 15 Noroeste 0 -- -- 32
2018-07-06 19:00:00 31.8 4 Norte 17 Oeste 0 -- -- 32
2018-07-06 18:00:00 31.5 8 Noroeste 18 Oeste 0 -- -- 32
2018-07-06 17:00:00 30.7 6 Oeste 15 Oeste 0 -- -- 33
2018-07-06 16:00:00 29.3 4 Oeste 16 Noroeste 0 -- -- 38
2018-07-06 15:00:00 28.3 6 Oeste 17 Noroeste 0 -- -- 42
2018-07-06 14:00:00 27.2 9 Oeste 20 Oeste 0 -- -- 43
2018-07-06 13:00:00 25.9 12 Oeste 20 Oeste 0 -- -- 42
2018-07-06 12:00:00 24 8 Oeste 22 Sudoeste 0 -- -- 50
2018-07-06 11:00:00 22 7 Noroeste 19 Noroeste 0 -- -- 57
2018-07-06 10:00:00 19.9 8 Noroeste 21 Noroeste 0 -- -- 67
2018-07-06 09:00:00 18.1 8 Oeste 15 Oeste 0 -- -- 73
2018-07-06 08:00:00 16.4 8 Noroeste 13 Noroeste 0 -- -- 77
2018-07-06 07:00:00 15.3 4 Norte 15 Oeste 0 -- -- 80
2018-07-06 06:00:00 15.9 8 Oeste 18 Oeste 0 -- -- 78
2018-07-06 05:00:00 16.4 7 Oeste 18 Oeste 0 -- -- 75
2018-07-06 04:00:00 16.7 7 Oeste 30 Oeste 0 -- -- 73
2018-07-06 03:00:00 17.7 17 Oeste 27 Oeste 0 -- -- 69
2018-07-06 02:00:00 18.3 12 Oeste 28 Oeste 0 -- -- 68
2018-07-06 01:00:00 19.2 18 Oeste 29 Oeste 0 -- -- 64
2018-07-06 00:00:00 20.3 14 Oeste 28 Oeste 0 -- -- 63
2018-07-05 23:00:00 21.7 11 Oeste 26 Noroeste 0 -- -- 60
2018-07-05 22:00:00 23.4 13 Oeste 31 Oeste 0 -- -- 51
2018-07-05 21:00:00 25.9 18 Oeste 39 Oeste 0 -- -- 42
2018-07-05 20:00:00 27.4 24 Oeste 39 Oeste 0 -- -- 38
2018-07-05 19:00:00 28.2 25 Oeste 39 Oeste 0 -- -- 33
2018-07-05 18:00:00 28.7 25 Oeste 47 Oeste 0 -- -- 36
2018-07-05 17:00:00 28.8 26 Oeste 45 Oeste 0 -- -- 36
2018-07-05 16:00:00 28.6 23 Oeste 43 Oeste 0 -- -- 39
2018-07-05 15:00:00 28.5 21 Oeste 39 Oeste 0 -- -- 41
2018-07-05 14:00:00 27.6 21 Oeste 38 Oeste 0 -- -- 44
2018-07-05 13:00:00 26.8 21 Oeste 35 Oeste 0 -- -- 47
2018-07-05 12:00:00 25.2 20 Oeste 36 Oeste 0 -- -- 51
2018-07-05 11:00:00 23.7 14 Oeste 34 Oeste 0 -- -- 56
2018-07-05 10:00:00 21.9 21 Oeste 36 Oeste 0 -- -- 62
2018-07-05 09:00:00 20.4 19 Oeste 34 Oeste 0 -- -- 69
2018-07-05 08:00:00 18.7 12 Oeste 22 Oeste 0 -- -- 74
2018-07-05 07:00:00 17.7 11 Noroeste 22 Oeste 0 -- -- 76
2018-07-05 06:00:00 17.4 10 Noroeste 19 Oeste 0 -- -- 78
2018-07-05 05:00:00 17.9 8 Noroeste 15 Noroeste 0 -- -- 76
2018-07-05 04:00:00 18.5 6 Oeste 29 Oeste 0 -- -- 77
2018-07-05 03:00:00 19 10 Oeste 15 Oeste 0 -- -- 76
2018-07-05 02:00:00 19.8 5 Noroeste 14 Noroeste 0 -- -- 74
2018-07-05 01:00:00 20.7 8 Noroeste 22 Noroeste 0 -- -- 71
2018-07-05 00:00:00 20.7 5 Noroeste 15 Norte 0 -- -- 76
2018-07-04 23:00:00 21.6 8 Norte 18 Noroeste 0 -- -- 71
2018-07-04 22:00:00 25.7 11 Norte 26 Noroeste 0 -- -- 58
2018-07-04 21:00:00 27.6 10 Sur 31 Sudeste 0 -- -- 53
2018-07-04 20:00:00 29.9 18 Sudeste 30 Este 0 -- -- 46
2018-07-04 19:00:00 30.2 18 Este 40 Sudeste 0 -- -- 42
2018-07-04 18:00:00 32.4 19 Este 36 Este 0 -- -- 36
2018-07-04 17:00:00 32.7 19 Este 36 Sudeste 0 -- -- 35
2018-07-04 16:00:00 32.5 21 Este 40 Este 0 -- -- 35
2018-07-04 15:00:00 32.3 19 Este 34 Este 0 -- -- 37
2018-07-04 14:00:00 31.6 19 Este 33 Este 0 -- -- 39
2018-07-04 13:00:00 29.9 15 Este 28 Este 0 -- -- 46
2018-07-04 12:00:00 28.3 15 Este 28 Este 0 -- -- 51
2018-07-04 11:00:00 26.6 14 Sudeste 24 Sudeste 0 -- -- 59
2018-07-04 10:00:00 24.7 15 Este 26 Este 0 -- -- 64
2018-07-04 09:00:00 23.5 12 Sudeste 21 Sudeste 0 -- -- 62
2018-07-04 08:00:00 21.3 2 Este 4 Sudeste 0 -- -- 67
2018-07-04 07:00:00 19.5 2 Norte 6 Norte 0 -- -- 69
2018-07-04 06:00:00 20.2 3 Este 6 Nordeste 0 -- -- 66
2018-07-04 05:00:00 20.9 3 Este 9 Sudeste 0 -- -- 63
2018-07-04 04:00:00 21.8 3 Sudeste 9 Este 0 -- -- 59
2018-07-04 03:00:00 22.7 3 Oeste 14 Este 0 -- -- 58
2018-07-04 02:00:00 24 6 Este 24 Este 0 -- -- 53
2018-07-04 01:00:00 24.1 10 Nordeste 25 Este 0 -- -- 55
2018-07-04 00:00:00 -- 13 Este 23 Este 0 -- -- --
2018-07-03 23:00:00 25.5 9 Este 18 Este 0 -- -- 54
2018-07-03 22:00:00 26.9 8 Este 13 Este 0 -- -- 54
2018-07-03 21:00:00 29.2 11 Sudeste 21 Sudeste 0 -- -- 48
2018-07-03 20:00:00 30.4 15 Sudeste 30 Sudeste 0 -- -- 45
2018-07-03 19:00:00 33.1 9 Este 18 Este 0 -- -- 33
2018-07-03 18:00:00 34.2 7 Nordeste 19 Sudeste 0 -- -- 30
2018-07-03 17:00:00 33.9 5 Nordeste 21 Este 0 -- -- 30
2018-07-03 16:00:00 33.3 5 Nordeste 23 Este 0 -- -- 32
2018-07-03 15:00:00 32.8 6 Este 23 Este 0 -- -- 35
2018-07-03 14:00:00 31.9 6 Sudeste 15 Este 0 -- -- 36
2018-07-03 13:00:00 30.3 6 Este 17 Sur 0 -- -- 41
2018-07-03 12:00:00 29.1 7 Sudeste 14 Sudeste 0 -- -- 49
2018-07-03 11:00:00 26.9 5 Sudeste 10 Sudeste 0 -- -- 56
2018-07-03 10:00:00 23.4 4 Oeste 8 Oeste 0 -- -- 57
2018-07-03 09:00:00 21.7 2 Oeste 9 Nordeste 0 -- -- 61
2018-07-03 08:00:00 19.7 5 Norte 10 Norte 0 -- -- 72
2018-07-03 07:00:00 18 2 Noroeste 6 Norte 0 -- -- 80
2018-07-03 06:00:00 18.5 4 Noroeste 8 Oeste 0 -- -- 75
2018-07-03 05:00:00 18.9 4 Noroeste 8 Norte 0 -- -- 73
2018-07-03 04:00:00 19.5 7 Norte 11 Norte 0 -- -- 67
2018-07-03 03:00:00 21 8 Norte 13 Norte 0 -- -- 59
2018-07-03 02:00:00 22.2 4 Norte 10 Norte 0 -- -- 57
2018-07-03 01:00:00 23.6 4 Noroeste 8 Noroeste 0 -- -- 61
2018-07-03 00:00:00 -- 4 Norte 10 Este 0 -- -- --
2018-07-02 23:00:00 25.2 5 Oeste 7 Oeste 0 -- -- 59
2018-07-02 22:00:00 27.7 3 Este 5 Norte 0 -- -- 41
2018-07-02 21:00:00 31 5 Norte 14 Oeste 0 -- -- 33
2018-07-02 20:00:00 31.7 8 Noroeste 19 Noroeste 0 -- -- 29
2018-07-02 19:00:00 32.1 8 Oeste 21 Oeste 0 -- -- 28
2018-07-02 18:00:00 32.4 6 Oeste 23 Oeste 0 -- -- 28
2018-07-02 17:00:00 31.9 9 Oeste 21 Sudoeste 0 -- -- 27
2018-07-02 16:00:00 31.3 11 Sudoeste 24 Sudoeste 0 -- -- 31
2018-07-02 15:00:00 30.6 9 Sudoeste 24 Oeste 0 -- -- 35
2018-07-02 14:00:00 29.8 10 Oeste 22 Oeste 0 -- -- 37
2018-07-02 13:00:00 29 11 Oeste 22 Oeste 0 -- -- 43
2018-07-02 12:00:00 27.1 12 Oeste 23 Oeste 0 -- -- 58
2018-07-02 11:00:00 25.1 9 Noroeste 24 Noroeste 0 -- -- 67
2018-07-02 10:00:00 22.8 13 Noroeste 24 Oeste 0 -- -- 77
2018-07-02 09:00:00 20.5 15 Oeste 25 Oeste 0 -- -- 85
2018-07-02 08:00:00 18.6 8 Oeste 14 Oeste 0 -- -- 91
2018-07-02 07:00:00 18.2 5 Oeste 12 Oeste 0 -- -- 90
2018-07-02 06:00:00 18.5 5 Oeste 11 Oeste 0 -- -- 90
2018-07-02 05:00:00 19.2 8 Oeste 13 Oeste 0 -- -- 90
2018-07-02 04:00:00 19.8 0 Calma 6 Nordeste 0 -- -- 89
2018-07-02 03:00:00 20.3 5 Nordeste 7 Nordeste 0 -- -- 86
2018-07-02 02:00:00 20.6 0 Calma 10 Noroeste 0 -- -- 85
2018-07-02 01:00:00 21 7 Oeste 12 Sudoeste 0 -- -- 82
2018-07-02 00:00:00 22.8 4 Nordeste 12 Nordeste 0 -- -- 74
2018-07-01 23:00:00 21.8 7 Nordeste 10 Norte 0 -- -- 76
2018-07-01 22:00:00 22.5 6 Norte 17 Oeste 0 -- -- 74
2018-07-01 21:00:00 23.9 4 Sudoeste 21 Norte 0 -- -- 70
2018-07-01 20:00:00 25 15 Noroeste 44 Oeste 0 -- -- 56
2018-07-01 19:00:00 25.7 4 Sur 21 Nordeste 0 -- -- 66
2018-07-01 18:00:00 25 15 Este 48 Sur 3.6 -- -- 59
2018-07-01 17:00:00 30.7 6 Nordeste 14 Sudeste 0 -- -- 37
2018-07-01 16:00:00 33.3 11 Sudeste 21 Este 0 -- -- 33
2018-07-01 15:00:00 32.5 10 Este 20 Este 0 -- -- 30
2018-07-01 14:00:00 31.5 10 Este 25 Nordeste 0 -- -- 34
2018-07-01 13:00:00 30.4 10 Este 18 Sudeste 0 -- -- 35
2018-07-01 12:00:00 28.8 12 Este 21 Sudeste 0 -- -- 36
2018-07-01 11:00:00 27.2 8 Este 14 Sudeste 0 -- -- 42
2018-07-01 10:00:00 25 2 Norte 6 Noroeste 0 -- -- 52
2018-07-01 09:00:00 22.5 2 Oeste 5 Oeste 0 -- -- 61
2018-07-01 08:00:00 19.7 2 Norte 9 Noroeste 0 -- -- 74
2018-07-01 07:00:00 18.4 3 Oeste 7 Oeste 0 -- -- 76
2018-07-01 06:00:00 18.8 3 Oeste 7 Sudoeste 0 -- -- 75
2018-07-01 05:00:00 19.6 3 Nordeste 8 Nordeste 0 -- -- 66
2018-07-01 04:00:00 20 5 Nordeste 9 Nordeste 0 -- -- 68
2018-07-01 03:00:00 20.7 6 Nordeste 12 Este 0 -- -- 66
2018-07-01 02:00:00 21.3 7 Este 21 Este 0 -- -- 63
2018-07-01 01:00:00 22.5 11 Este 19 Este 0 -- -- 59
2018-07-01 00:00:00 23.4 10 Este 19 Este 0 -- -- 55
2018-06-30 23:00:00 24.2 9 Este 20 Este 0 -- -- 54
2018-06-30 22:00:00 25.3 10 Este 35 Sudeste 0 -- -- 45
2018-06-30 21:00:00 27.9 20 Sudeste 35 Sudeste 0 -- -- 33
2018-06-30 20:00:00 29.7 24 Sudeste 44 Sudeste 0 -- -- 33
2018-06-30 19:00:00 31.3 28 Sudeste 42 Este 0 -- -- 32
2018-06-30 18:00:00 32.5 22 Sudeste 40 Este 0 -- -- 34
2018-06-30 17:00:00 32.8 19 Este 39 Sudeste 0 -- -- 38
2018-06-30 16:00:00 32.3 22 Sudeste 39 Este 0 -- -- 39
2018-06-30 15:00:00 31.6 18 Sudeste 33 Este 0 -- -- 40
2018-06-30 14:00:00 30.6 17 Este 31 Nordeste 0 -- -- 41
2018-06-30 13:00:00 29.8 15 Este 27 Este 0 -- -- 44
2018-06-30 12:00:00 28 16 Este 28 Este 0 -- -- 47
2018-06-30 11:00:00 26.4 15 Este 23 Sudeste 0 -- -- 53
2018-06-30 10:00:00 24.7 9 Este 14 Este 0 -- -- 59
2018-06-30 09:00:00 22.5 4 Este 6 Sudeste 0 -- -- 69
2018-06-30 08:00:00 19.8 0 Calma 4 Sudoeste 0 -- -- 79
2018-06-30 07:00:00 18.5 3 Sudoeste 7 Sudoeste 0 -- -- 81
2018-06-30 06:00:00 19.4 2 Este 9 Este 0 -- -- 76
2018-06-30 05:00:00 19.7 5 Sudeste 12 Este 0 -- -- 76
2018-06-30 04:00:00 20.4 10 Este 23 Este 0 -- -- 72
2018-06-30 03:00:00 21.1 10 Este 28 Este 0 -- -- 69
2018-06-30 02:00:00 21.7 16 Este 28 Este 0 -- -- 65
2018-06-30 01:00:00 22.1 15 Este 28 Nordeste 0 -- -- 62
2018-06-30 00:00:00 22.4 12 Este 23 Este 0 -- -- 63
2018-06-29 23:00:00 23.6 15 Este 27 Este 0 -- -- 55
2018-06-29 22:00:00 24.7 14 Este 22 Este 0 -- -- 51
2018-06-29 21:00:00 26.9 12 Este 28 Este 0 -- -- 51
2018-06-29 20:00:00 28.3 13 Sudeste 28 Sudeste 0 -- -- 46
2018-06-29 19:00:00 29.1 16 Este 30 Este 0 -- -- 44
2018-06-29 18:00:00 30.8 17 Sudeste 32 Sudeste 0 -- -- 37
2018-06-29 17:00:00 31.5 17 Sudeste 33 Este 0 -- -- 42
2018-06-29 16:00:00 29.7 15 Este 25 Este 0 -- -- 47
2018-06-29 15:00:00 30.5 13 Este 27 Este 0 -- -- 43
2018-06-29 14:00:00 29.4 14 Este 29 Este 0 -- -- 47
2018-06-29 13:00:00 28.4 14 Este 28 Este 0 -- -- 51
2018-06-29 12:00:00 27.3 11 Este 20 Nordeste 0 -- -- 52
2018-06-29 11:00:00 25.9 10 Este 17 Este 0 -- -- 56
2018-06-29 10:00:00 23.8 4 Nordeste 12 Sudeste 0 -- -- 64
2018-06-29 09:00:00 21 4 Sudoeste 9 Sudoeste 0 -- -- 76
2018-06-29 08:00:00 20 4 Sudeste 11 Sudeste 0 -- -- 82
2018-06-29 07:00:00 18.3 3 Sudeste 11 Nordeste 0 -- -- 88
2018-06-29 06:00:00 18.4 4 Norte 10 Noroeste 0 -- -- 86
2018-06-29 05:00:00 18.8 4 Oeste 9 Sudoeste 0 -- -- 85
2018-06-29 04:00:00 19.6 0 Calma 6 Oeste 0 -- -- 81
2018-06-29 03:00:00 19.8 3 Norte 12 Nordeste 0 -- -- 78
2018-06-29 02:00:00 20.1 6 Norte 13 Nordeste 0 -- -- 78
2018-06-29 01:00:00 20.3 8 Nordeste 15 Nordeste 0 -- -- 78
2018-06-29 00:00:00 20.6 8 Sudeste 28 Este 0 -- -- 77
2018-06-28 23:00:00 21.3 19 Este 46 Este 0 -- -- 75
2018-06-28 22:00:00 23.5 33 Este 53 Este 0 -- -- 61
2018-06-28 21:00:00 28.4 10 Noroeste 27 Norte 0 -- -- 44
2018-06-28 20:00:00 29.6 7 Sudoeste 23 Sudoeste 0 -- -- 48
2018-06-28 19:00:00 29.9 10 Sudoeste 27 Sur 0 -- -- 47
2018-06-28 18:00:00 31.1 13 Sudoeste 28 Sudoeste 0 -- -- 47
2018-06-28 17:00:00 31.2 13 Sudoeste 21 Sur 0 -- -- 46
2018-06-28 16:00:00 32 4 Oeste 17 Sudoeste 0 -- -- 42
2018-06-28 15:00:00 30.8 6 Sudoeste 16 Oeste 0 -- -- 46
2018-06-28 14:00:00 29.7 8 Oeste 16 Oeste 0 -- -- 47
2018-06-28 13:00:00 27.5 8 Oeste 22 Oeste 0 -- -- 56
2018-06-28 12:00:00 25.6 10 Oeste 18 Noroeste 0 -- -- 61
2018-06-28 11:00:00 24.6 10 Oeste 21 Oeste 0 -- -- 66
2018-06-28 10:00:00 22.2 11 Oeste 23 Oeste 0 -- -- 73
2018-06-28 09:00:00 20.4 9 Noroeste 22 Oeste 0 -- -- 80
2018-06-28 08:00:00 18.9 8 Noroeste 22 Oeste 0 -- -- 85
2018-06-28 07:00:00 18.7 9 Noroeste 16 Noroeste 0 -- -- 86
2018-06-28 06:00:00 19.3 5 Noroeste 10 Noroeste 0 -- -- 86
2018-06-28 05:00:00 19.9 5 Noroeste 11 Norte 0 -- -- 83
2018-06-28 04:00:00 20.6 4 Norte 12 Noroeste 0 -- -- 79
2018-06-28 03:00:00 21.6 3 Oeste 12 Oeste 0 -- -- 75
2018-06-28 02:00:00 -- 4 Sudeste 11 Sudeste 0 -- -- --
2018-06-28 01:00:00 21.7 11 Sudeste 20 Sudeste 0 -- -- 73
2018-06-28 00:00:00 22.5 4 Sur 13 Oeste 0 -- -- 70
2018-06-27 23:00:00 23.1 11 Oeste 28 Noroeste 0 -- -- 65
2018-06-27 22:00:00 24.7 19 Oeste 35 Noroeste 0 -- -- 60
2018-06-27 21:00:00 27.7 8 Sudoeste 15 Oeste 0 -- -- 58
2018-06-27 20:00:00 28.7 6 Noroeste 17 Oeste 0 -- -- 55
2018-06-27 19:00:00 29.7 10 Oeste 23 Oeste 0 -- -- 52
2018-06-27 18:00:00 31.5 4 Noroeste 10 Oeste 0 -- -- 42
2018-06-27 17:00:00 32.1 5 Oeste 12 Sudoeste 0 -- -- 40
2018-06-27 16:00:00 33.2 3 Este 9 Sudeste 0 -- -- 37
2018-06-27 15:00:00 32.3 4 Sudoeste 15 Nordeste 0 -- -- 37
2018-06-27 14:00:00 31.3 6 Sudeste 14 Sudeste 0 -- -- 40
2018-06-27 13:00:00 30 7 Sudeste 17 Este 0 -- -- 41
2018-06-27 12:00:00 28 10 Este 21 Este 0 -- -- 44
2018-06-27 11:00:00 27.1 6 Sudeste 13 Sudeste 0 -- -- 53
2018-06-27 10:00:00 24.5 0 Calma 8 Oeste 0 -- -- 65
2018-06-27 09:00:00 21.6 4 Sudoeste 8 Oeste 0 -- -- 76
2018-06-27 08:00:00 20.7 4 Nordeste 7 Nordeste 0 -- -- 77
2018-06-27 07:00:00 19.3 3 Norte 9 Norte 0 -- -- 79
2018-06-27 06:00:00 19.8 3 Norte 5 Norte 0 -- -- 79
2018-06-27 05:00:00 20 2 Este 10 Sudeste 0 -- -- 78
2018-06-27 04:00:00 20.6 6 Sudeste 17 Este 0 -- -- 75
2018-06-27 03:00:00 21.3 9 Este 15 Este 0 -- -- 73
2018-06-27 02:00:00 21.6 5 Este 19 Este 0 -- -- 70
2018-06-27 01:00:00 22.4 10 Este 25 Este 0 -- -- 69
2018-06-27 00:00:00 23.6 14 Este 30 Este 0 -- -- 66
2018-06-26 23:00:00 24.8 12 Este 23 Sudeste 0 -- -- 64
2018-06-26 22:00:00 26.9 9 Sudeste 20 Sudeste 0 -- -- 57
2018-06-26 21:00:00 29.6 13 Sudeste 26 Sudeste 0 -- -- 51
2018-06-26 20:00:00 31.9 13 Este 22 Este 0 -- -- 45
2018-06-26 19:00:00 33.1 10 Sudeste 24 Este 0 -- -- 41
2018-06-26 18:00:00 33.8 6 Nordeste 12 Sudeste 0 -- -- 36
2018-06-26 17:00:00 34.1 3 Sudoeste 9 Oeste 0 -- -- 40
2018-06-26 16:00:00 33.3 5 Sur 15 Sur 0 -- -- 37
2018-06-26 15:00:00 31.3 4 Sudeste 15 Este 0 -- -- 47
2018-06-26 14:00:00 30.2 4 Sudoeste 18 Sur 0 -- -- 50
2018-06-26 13:00:00 28.7 9 Este 21 Sudeste 0 -- -- 55
2018-06-26 12:00:00 27.4 10 Sudeste 23 Este 0 -- -- 61
2018-06-26 11:00:00 25.8 10 Este 21 Este 0 -- -- 63
2018-06-26 10:00:00 24.9 8 Este 15 Este 0 -- -- 66
2018-06-26 09:00:00 22.8 3 Sudeste 7 Este 0 -- -- 73
2018-06-26 08:00:00 20.1 2 Oeste 4 Sudoeste 0 -- -- 84
2018-06-26 07:00:00 19.3 3 Sudoeste 8 Este 0 -- -- 87
2018-06-26 06:00:00 19.5 6 Nordeste 11 Este 0 -- -- 84
2018-06-26 05:00:00 19.9 3 Nordeste 22 Nordeste 0 -- -- 82
2018-06-26 04:00:00 20.1 12 Este 21 Nordeste 0 -- -- 82
2018-06-26 03:00:00 20.8 9 Este 22 Este 0 -- -- 81
2018-06-26 02:00:00 21.5 13 Este 25 Sudeste 0 -- -- 81
2018-06-26 01:00:00 22.3 20 Sudeste 37 Sudeste 0 -- -- 79
2018-06-26 00:00:00 23.8 21 Este 34 Este 0 -- -- 73
2018-06-25 23:00:00 25.6 8 Sudeste 20 Sudeste 0 -- -- 65
2018-06-25 22:00:00 28.1 13 Sudeste 22 Este 0 -- -- 58
2018-06-25 21:00:00 32.9 6 Sudeste 10 Sur 0 -- -- 40
2018-06-25 20:00:00 34.4 4 Sur 8 Sur 0 -- -- 38
2018-06-25 19:00:00 34.3 4 Sudoeste 10 Sur 0 -- -- 37
2018-06-25 18:00:00 33.1 5 Noroeste 14 Noroeste 0 -- -- 37
2018-06-25 17:00:00 32.5 5 Norte 18 Norte 0 -- -- 38
2018-06-25 16:00:00 31.4 5 Sur 15 Oeste 0 -- -- 44
2018-06-25 15:00:00 30.4 5 Este 23 Sudeste 0 -- -- 48
2018-06-25 14:00:00 29.4 8 Nordeste 15 Este 0 -- -- 51
2018-06-25 13:00:00 28.1 7 Nordeste 16 Sudeste 0 -- -- 54
2018-06-25 12:00:00 26.8 8 Este 18 Este 0 -- -- 60
2018-06-25 11:00:00 24.7 6 Nordeste 15 Este 0 -- -- 66
2018-06-25 10:00:00 23.6 5 Este 12 Este 0 -- -- 71
2018-06-25 09:00:00 22.5 4 Sudeste 8 Sudeste 0 -- -- 73
2018-06-25 08:00:00 19.7 3 Norte 7 Nordeste 0 -- -- 85
2018-06-25 07:00:00 18.3 4 Oeste 7 Oeste 0 -- -- 90
2018-06-25 06:00:00 19 2 Sudeste 14 Sudeste 0 -- -- 86
2018-06-25 05:00:00 19.5 8 Este 18 Este 0 -- -- 85
2018-06-25 04:00:00 20.1 9 Este 25 Este 0 -- -- 83
2018-06-25 03:00:00 20.5 10 Este 27 Sudeste 0 -- -- 83
2018-06-25 02:00:00 21.2 17 Este 28 Este 0 -- -- 80
2018-06-25 01:00:00 22.3 13 Este 22 Este 0 -- -- 76
2018-06-25 00:00:00 24 5 Sudeste 14 Sudeste 0 -- -- 70
2018-06-24 23:00:00 25.4 9 Sudeste 13 Sudeste 0 -- -- 63
2018-06-24 22:00:00 28.8 7 Sudeste 12 Sudeste 0 -- -- 50
2018-06-24 21:00:00 32.6 3 Sur 8 Sur 0 -- -- 39
2018-06-24 20:00:00 33.4 4 Sudoeste 14 Sur 0 -- -- 39
2018-06-24 19:00:00 33.6 4 Sudoeste 12 Sudoeste 0 -- -- 39
2018-06-24 18:00:00 32.8 5 Sur 10 Oeste 0 -- -- 39
2018-06-24 17:00:00 31.1 6 Oeste 15 Noroeste 0 -- -- 41
2018-06-24 16:00:00 29.9 5 Norte 14 Noroeste 0 -- -- 45
2018-06-24 15:00:00 29.2 6 Oeste 17 Sudeste 0 -- -- 49
2018-06-24 14:00:00 28.2 5 Este 14 Este 0 -- -- 55
2018-06-24 13:00:00 27.7 7 Sudeste 15 Sudeste 0 -- -- 58
2018-06-24 12:00:00 26.3 6 Este 12 Sur 0 -- -- 59
2018-06-24 11:00:00 25.3 3 Este 8 Este 0 -- -- 63
2018-06-24 10:00:00 22.3 5 Oeste 9 Oeste 0 -- -- 73
2018-06-24 09:00:00 20.7 0 Calma 5 Norte 0 -- -- 77
2018-06-24 08:00:00 18.8 2 Norte 4 Norte 0 -- -- 83
2018-06-24 07:00:00 18.2 3 Noroeste 7 Norte 0 -- -- 86
2018-06-24 06:00:00 18.3 2 Noroeste 5 Sur 0 -- -- 86
2018-06-24 05:00:00 18.7 3 Nordeste 6 Este 0 -- -- 84
2018-06-24 04:00:00 19.1 4 Este 12 Sudeste 0 -- -- 82
2018-06-24 03:00:00 19.7 6 Este 17 Sudeste 0 -- -- 81
2018-06-24 02:00:00 20.3 10 Este 27 Este 0 -- -- 80
2018-06-24 01:00:00 21.1 18 Este 33 Este 0 -- -- 78
2018-06-24 00:00:00 22.3 15 Este 28 Este 0 -- -- 74
2018-06-23 23:00:00 23.9 14 Sudeste 22 Este 0 -- -- 69
2018-06-23 22:00:00 25.9 14 Este 25 Sudeste 0 -- -- 63
2018-06-23 21:00:00 31.4 5 Este 8 Este 0 -- -- 38
2018-06-23 20:00:00 33.2 3 Sudeste 8 Norte 0 -- -- 35
2018-06-23 19:00:00 32.8 4 Noroeste 14 Oeste 0 -- -- 33
2018-06-23 18:00:00 32.3 6 Oeste 19 Sudoeste 0 -- -- 35
2018-06-23 17:00:00 31.7 6 Sudoeste 13 Sudoeste 0 -- -- 38
2018-06-23 16:00:00 30.6 3 Norte 10 Este 0 -- -- 41
2018-06-23 15:00:00 29.2 3 Nordeste 17 Este 0 -- -- 43
2018-06-23 14:00:00 28.3 7 Sudeste 17 Sudeste 0 -- -- 45
2018-06-23 13:00:00 26.7 6 Este 15 Este 0 -- -- 50
2018-06-23 12:00:00 25.3 5 Sudeste 19 Sudeste 0 -- -- 53
2018-06-23 11:00:00 24 5 Sudeste 12 Sur 0 -- -- 56
2018-06-23 10:00:00 21.3 3 Sur 10 Nordeste 0 -- -- 64
2018-06-23 09:00:00 18.6 3 Noroeste 7 Noroeste 0 -- -- 71
2018-06-23 08:00:00 17.2 0 Calma 9 Oeste 0 -- -- 77
2018-06-23 07:00:00 15.4 8 Oeste 15 Oeste 0 -- -- 81
2018-06-23 06:00:00 16.2 8 Noroeste 18 Oeste 0 -- -- 80
2018-06-23 05:00:00 16.8 10 Noroeste 19 Noroeste 0 -- -- 80
2018-06-23 04:00:00 17.4 11 Oeste 22 Oeste 0 -- -- 80
2018-06-23 03:00:00 18.6 11 Noroeste 21 Noroeste 0 -- -- 78
2018-06-23 02:00:00 20.2 9 Noroeste 18 Noroeste 0 -- -- 73
2018-06-23 01:00:00 21 5 Norte 18 Oeste 0 -- -- 68
2018-06-23 00:00:00 22.3 13 Oeste 28 Oeste 0 -- -- 62
2018-06-22 23:00:00 -- 17 Oeste 30 Oeste 0 -- -- --
2018-06-22 22:00:00 26.3 18 Oeste 30 Oeste 0 -- -- 49
2018-06-22 21:00:00 29.2 17 Oeste 33 Oeste 0 -- -- 40
2018-06-22 20:00:00 31.3 20 Oeste 37 Oeste 0 -- -- 33
2018-06-22 19:00:00 32.5 22 Oeste 41 Oeste 0 -- -- 34
2018-06-22 18:00:00 33.2 23 Oeste 38 Oeste 0 -- -- 32
2018-06-22 17:00:00 33.5 20 Oeste 35 Oeste 0 -- -- 35
2018-06-22 16:00:00 33.4 16 Oeste 29 Oeste 0 -- -- 34
2018-06-22 15:00:00 32.3 15 Oeste 25 Oeste 0 -- -- 39
2018-06-22 14:00:00 31.4 13 Oeste 22 Oeste 0 -- -- 40
2018-06-22 13:00:00 30.2 10 Oeste 21 Oeste 0 -- -- 44
2018-06-22 12:00:00 28.5 7 Oeste 17 Oeste 0 -- -- 45
2018-06-22 11:00:00 26.4 9 Noroeste 16 Oeste 0 -- -- 54
2018-06-22 10:00:00 23.6 8 Noroeste 19 Oeste 0 -- -- 67
2018-06-22 09:00:00 20.8 13 Noroeste 21 Noroeste 0 -- -- 78
2018-06-22 08:00:00 19.2 11 Noroeste 20 Oeste 0 -- -- 83
2018-06-22 07:00:00 18.1 9 Noroeste 20 Noroeste 0 -- -- 86
2018-06-22 06:00:00 18.3 12 Noroeste 23 Oeste 0 -- -- 86
2018-06-22 05:00:00 19 12 Oeste 19 Oeste 0 -- -- 82
2018-06-22 04:00:00 20.1 8 Oeste 17 Oeste 0 -- -- 79
2018-06-22 03:00:00 22 10 Oeste 16 Oeste 0 -- -- 72
2018-06-22 02:00:00 23.5 7 Este 14 Este 0 -- -- 47
2018-06-22 01:00:00 24.2 6 Sudeste 12 Sudeste 0 -- -- 54
2018-06-22 00:00:00 25.8 4 Sur 14 Sudeste 0 -- -- 54
2018-06-21 23:00:00 27.8 6 Oeste 13 Noroeste 0 -- -- 46
2018-06-21 22:00:00 30 3 Sudoeste 8 Oeste 0 -- -- 45
2018-06-21 21:00:00 32.9 5 Oeste 10 Oeste 0 -- -- 33
2018-06-21 20:00:00 34.6 7 Oeste 17 Oeste 0 -- -- 30
2018-06-21 19:00:00 36.2 4 Noroeste 9 Oeste 0 -- -- 27
2018-06-21 18:00:00 36.4 6 Sur 13 Sur 0 -- -- 30
2018-06-21 17:00:00 35.8 4 Sudoeste 11 Oeste 0 -- -- 31
2018-06-21 16:00:00 34.6 5 Sudoeste 11 Oeste 0 -- -- 31
2018-06-21 15:00:00 33.7 5 Sudoeste 12 Oeste 0 -- -- 29
2018-06-21 14:00:00 32.8 4 Sur 10 Oeste 0 -- -- 29
2018-06-21 13:00:00 31.4 5 Sudoeste 10 Sudoeste 0 -- -- 29
2018-06-21 12:00:00 29.2 5 Sudoeste 10 Sudoeste 0 -- -- 38
2018-06-21 11:00:00 26.4 4 Oeste 8 Noroeste 0 -- -- 46
2018-06-21 10:00:00 23.6 4 Oeste 10 Sudoeste 0 -- -- 56
2018-06-21 09:00:00 20.8 4 Noroeste 6 Oeste 0 -- -- 68
2018-06-21 08:00:00 18.9 3 Oeste 5 Oeste 0 -- -- 73
2018-06-21 07:00:00 17.5 3 Norte 8 Noroeste 0 -- -- 75
2018-06-21 06:00:00 17.6 4 Noroeste 9 Noroeste 0 -- -- 74
2018-06-21 05:00:00 18.5 4 Oeste 8 Oeste 0 -- -- 70
2018-06-21 04:00:00 19.9 0 Calma 4 Norte 0 -- -- 65
2018-06-21 03:00:00 20.9 3 Norte 5 Norte 0 -- -- 56
2018-06-21 02:00:00 21.9 0 Calma 12 Nordeste 0 -- -- 53
2018-06-21 01:00:00 -- 9 Este 25 Sudeste 0 -- -- --
2018-06-21 00:00:00 24 8 Este 20 Este 0 -- -- 46
2018-06-20 23:00:00 25 10 Este 18 Este 0 -- -- 45
2018-06-20 22:00:00 26.9 8 Sudeste 18 Sudeste 0 -- -- 41
2018-06-20 21:00:00 30.7 8 Sudeste 23 Sudeste 0 -- -- 36
2018-06-20 20:00:00 32.1 14 Sudeste 21 Sudeste 0 -- -- 33
2018-06-20 19:00:00 33.2 9 Este 21 Este 0 -- -- 32
2018-06-20 18:00:00 33.3 10 Este 24 Sudeste 0 -- -- 33
2018-06-20 17:00:00 33.2 12 Este 35 Este 0 -- -- 30
2018-06-20 16:00:00 32.6 9 Sudeste 21 Este 0 -- -- 34
2018-06-20 15:00:00 32 7 Sudeste 22 Este 0 -- -- 34
2018-06-20 14:00:00 30.9 12 Este 23 Sudeste 0 -- -- 40
2018-06-20 13:00:00 29.8 13 Este 29 Este 0 -- -- 40
2018-06-20 12:00:00 29.1 11 Este 17 Sudeste 0 -- -- 40
2018-06-20 11:00:00 27.2 8 Este 15 Este 0 -- -- 49
2018-06-20 10:00:00 23.9 2 Sur 6 Sur 0 -- -- 64
2018-06-20 09:00:00 20.6 3 Oeste 6 Noroeste 0 -- -- 75
2018-06-20 08:00:00 18.3 4 Noroeste 6 Oeste 0 -- -- 83
2018-06-20 07:00:00 17 4 Oeste 8 Noroeste 0 -- -- 87
2018-06-20 06:00:00 17.6 2 Noroeste 6 Oeste 0 -- -- 85
2018-06-20 05:00:00 18.6 5 Oeste 7 Oeste 0 -- -- 81
2018-06-20 04:00:00 20.1 2 Sur 13 Este 0 -- -- 73
2018-06-20 03:00:00 21 6 Este 18 Este 0 -- -- 70
2018-06-20 02:00:00 21.1 5 Nordeste 13 Este 0 -- -- 70
2018-06-20 01:00:00 22.4 4 Este 12 Sudeste 0 -- -- 64
2018-06-20 00:00:00 23.4 7 Sudeste 10 Sudeste 0 -- -- 60
2018-06-19 23:00:00 24.1 5 Este 10 Este 0 -- -- 55
2018-06-19 22:00:00 26 4 Este 10 Sudeste 0 -- -- 49
2018-06-19 21:00:00 29.4 6 Este 13 Sudeste 0 -- -- 43
2018-06-19 20:00:00 32.1 4 Sudeste 10 Sudeste 0 -- -- 38
2018-06-19 19:00:00 32.1 3 Oeste 10 Oeste 0 -- -- 35
2018-06-19 18:00:00 31.5 4 Sudoeste 11 Oeste 0 -- -- 37
2018-06-19 17:00:00 30.9 4 Sudoeste 24 Sur 0 -- -- 40
2018-06-19 16:00:00 29.2 4 Oeste 14 Oeste 0 -- -- 43
2018-06-19 15:00:00 28.4 3 Este 14 Este 0 -- -- 45
2018-06-19 14:00:00 26.5 3 Oeste 14 Oeste 0 -- -- 49
2018-06-19 13:00:00 24.9 5 Sudoeste 11 Sudoeste 0 -- -- 52
2018-06-19 12:00:00 23.1 4 Sur 14 Sudoeste 0 -- -- 60
2018-06-19 11:00:00 21 7 Oeste 15 Oeste 0 -- -- 64
2018-06-19 10:00:00 19.2 5 Oeste 18 Oeste 0 -- -- 72
2018-06-19 09:00:00 17.6 9 Oeste 17 Noroeste 0 -- -- 77
2018-06-19 08:00:00 16 5 Noroeste 12 Norte 0 -- -- 85
2018-06-19 07:00:00 14.6 3 Oeste 9 Noroeste 0 -- -- 88
2018-06-19 06:00:00 15.1 2 Noroeste 8 Noroeste 0 -- -- 86
2018-06-19 05:00:00 15.5 6 Noroeste 10 Noroeste 0 -- -- 84
2018-06-19 04:00:00 16.1 6 Noroeste 14 Noroeste 0 -- -- 82
2018-06-19 03:00:00 16.5 9 Noroeste 17 Noroeste 0 -- -- 80
2018-06-19 02:00:00 17.1 6 Noroeste 13 Noroeste 0 -- -- 77
2018-06-19 01:00:00 18.1 8 Noroeste 16 Noroeste 0 -- -- 72
2018-06-19 00:00:00 19.2 7 Oeste 18 Oeste 0 -- -- 66
2018-06-18 23:00:00 20.7 11 Oeste 21 Oeste 0 -- -- 61
2018-06-18 22:00:00 22.8 12 Oeste 24 Oeste 0 -- -- 54
2018-06-18 21:00:00 25.9 12 Oeste 29 Oeste 0 -- -- 47
2018-06-18 20:00:00 28.1 16 Oeste 28 Oeste 0 -- -- 42
2018-06-18 19:00:00 29.8 15 Oeste 30 Oeste 0 -- -- 38
2018-06-18 18:00:00 30.8 16 Oeste 26 Sudoeste 0 -- -- 37
2018-06-18 17:00:00 31 9 Oeste 21 Noroeste 0 -- -- 35
2018-06-18 16:00:00 30.7 7 Sudoeste 19 Sudoeste 0 -- -- 36
2018-06-18 15:00:00 29.7 6 Oeste 27 Oeste 0 -- -- 37
2018-06-18 14:00:00 28 12 Oeste 24 Oeste 0 -- -- 38
2018-06-18 13:00:00 25.8 10 Oeste 25 Oeste 0 -- -- 41
2018-06-18 12:00:00 24.1 9 Noroeste 21 Noroeste 0 -- -- 46
2018-06-18 11:00:00 21.4 11 Oeste 19 Oeste 0 -- -- 51
2018-06-18 10:00:00 19.3 10 Noroeste 17 Oeste 0 -- -- 55
2018-06-18 09:00:00 16.7 7 Noroeste 16 Oeste 0 -- -- 60
2018-06-18 08:00:00 15.2 2 Este 4 Noroeste 0 -- -- 66
2018-06-18 07:00:00 13.6 4 Noroeste 9 Noroeste 0 -- -- 69
2018-06-18 06:00:00 13.5 4 Noroeste 12 Norte 0 -- -- 67
2018-06-18 05:00:00 14 5 Noroeste 15 Noroeste 0 -- -- 64
2018-06-18 04:00:00 14.7 7 Noroeste 22 Oeste 0 -- -- 59
2018-06-18 03:00:00 15.2 13 Noroeste 24 Oeste 0 -- -- 60
2018-06-18 02:00:00 16.4 17 Oeste 27 Oeste 0 -- -- 57
2018-06-18 01:00:00 17 15 Noroeste 24 Oeste 0 -- -- 57
2018-06-18 00:00:00 18.4 13 Oeste 27 Oeste 0 -- -- 54
2018-06-17 23:00:00 19.7 14 Oeste 27 Oeste 0 -- -- 51
2018-06-17 22:00:00 21.3 15 Oeste 32 Oeste 0 -- -- 49
2018-06-17 21:00:00 24.1 16 Oeste 35 Oeste 0 -- -- 42
2018-06-17 20:00:00 26.3 19 Oeste 40 Oeste 0 -- -- 35
2018-06-17 19:00:00 27.3 20 Oeste 39 Oeste 0 -- -- 35
2018-06-17 18:00:00 27.8 19 Oeste 35 Oeste 0 -- -- 38
2018-06-17 17:00:00 27.5 20 Oeste 38 Oeste 0 -- -- 40
2018-06-17 16:00:00 27 19 Oeste 36 Oeste 0 -- -- 42
2018-06-17 15:00:00 26.2 18 Oeste 31 Oeste 0 -- -- 45
2018-06-17 14:00:00 24.7 16 Oeste 35 Noroeste 0 -- -- 48
2018-06-17 13:00:00 23.9 17 Oeste 30 Noroeste 0 -- -- 46
2018-06-17 12:00:00 22.4 12 Noroeste 24 Oeste 0 -- -- 49
2018-06-17 11:00:00 20.3 14 Oeste 24 Oeste 0 -- -- 54
2018-06-17 10:00:00 17.9 12 Oeste 22 Oeste 0 -- -- 64
2018-06-17 09:00:00 15.7 12 Noroeste 20 Oeste 0 -- -- 71
2018-06-17 08:00:00 13.5 8 Noroeste 15 Noroeste 0 -- -- 79
2018-06-17 07:00:00 12.6 7 Oeste 15 Noroeste 0 -- -- 82
2018-06-17 06:00:00 12.8 8 Noroeste 14 Noroeste 0 -- -- 80
2018-06-17 05:00:00 13.3 7 Noroeste 19 Oeste 0 -- -- 78
2018-06-17 04:00:00 14 9 Noroeste 21 Noroeste 0 -- -- 75
2018-06-17 03:00:00 14.7 8 Noroeste 15 Noroeste 0 -- -- 71
2018-06-17 02:00:00 15.2 9 Noroeste 17 Noroeste 0 -- -- 70
2018-06-17 01:00:00 16.4 7 Noroeste 14 Oeste 0 -- -- 68
2018-06-17 00:00:00 17.8 4 Noroeste 19 Oeste 0 -- -- 64